createdAt,value
2022-12-23T00:02:07.381Z,29.90
2022-12-23T00:05:10.377Z,29.90
2022-12-23T00:08:12.632Z,29.90
2022-12-23T00:11:18.211Z,29.90
2022-12-23T00:14:39.254Z,29.90
2022-12-23T00:17:43.782Z,29.80
2022-12-23T00:20:46.043Z,29.80
2022-12-23T00:23:50.043Z,29.80
2022-12-23T00:26:52.307Z,29.80
2022-12-23T00:29:54.242Z,29.90
2022-12-23T00:32:56.495Z,29.90
2022-12-23T00:35:59.013Z,29.80
2022-12-23T00:39:19.713Z,29.80
2022-12-23T00:42:40.166Z,29.80
2022-12-23T00:45:42.588Z,29.80
2022-12-23T00:49:03.442Z,29.70
2022-12-23T00:52:08.555Z,29.50
2022-12-23T00:55:10.512Z,29.20
2022-12-23T00:58:12.768Z,29.40
2022-12-23T01:01:33.687Z,29.50
2022-12-23T01:04:54.865Z,29.40
2022-12-23T01:07:56.865Z,29.40
2022-12-23T01:11:03.654Z,29.20
2022-12-23T01:14:06.250Z,29.30
2022-12-23T01:17:09.992Z,29.30
2022-12-23T01:20:12.700Z,29.30
2022-12-23T01:23:14.976Z,29.30
2022-12-23T01:26:17.121Z,29.20
2022-12-23T01:29:19.327Z,28.80
2022-12-23T01:32:21.305Z,28.60
2022-12-23T01:35:23.518Z,28.80
2022-12-23T01:38:25.646Z,29.00
2022-12-23T01:41:48.433Z,29.00
2022-12-23T01:44:54.796Z,29.00
2022-12-23T01:48:05.188Z,29.10
2022-12-23T01:51:12.877Z,29.20
2022-12-23T01:54:15.214Z,29.10
2022-12-23T01:57:17.342Z,28.80
2022-12-23T02:00:38.428Z,28.50
2022-12-23T02:03:43.968Z,28.70
2022-12-23T02:07:07.867Z,28.90
2022-12-23T02:10:10.298Z,29.00
2022-12-23T02:13:25.687Z,29.20
2022-12-23T02:16:30.410Z,29.40
2022-12-23T02:20:08.509Z,29.40
2022-12-23T02:23:31.503Z,29.60
2022-12-23T02:27:04.711Z,29.70
2022-12-23T02:30:25.020Z,29.70
2022-12-23T02:33:49.772Z,29.70
2022-12-23T02:36:54.865Z,29.80
2022-12-23T02:40:06.657Z,29.70
2022-12-23T02:43:14.456Z,29.80
2022-12-23T02:46:29.268Z,29.80
2022-12-23T02:49:35.962Z,29.80
2022-12-23T02:52:41.383Z,29.70
2022-12-23T02:55:46.443Z,29.70
2022-12-23T02:58:54.422Z,29.60
2022-12-23T03:01:57.464Z,29.60
2022-12-23T03:05:01.096Z,29.60
2022-12-23T03:08:07.591Z,29.70
2022-12-23T03:11:15.785Z,29.20
2022-12-23T03:14:56.087Z,29.10
2022-12-23T03:18:11.623Z,29.30
2022-12-23T03:21:22.575Z,29.60
2022-12-23T03:24:46.711Z,29.60
2022-12-23T03:27:57.243Z,29.60
2022-12-23T03:31:02.560Z,29.70
2022-12-23T03:34:10.310Z,29.80
2022-12-23T03:37:16.306Z,29.60
2022-12-23T03:40:28.229Z,29.70
2022-12-23T03:43:35.851Z,29.60
2022-12-23T03:46:43.164Z,29.60
2022-12-23T03:49:53.315Z,29.60
2022-12-23T03:53:12.497Z,29.60
2022-12-23T03:56:24.951Z,29.60
2022-12-23T03:59:31.535Z,29.60
2022-12-23T04:02:59.220Z,29.70
2022-12-23T04:06:05.431Z,29.70
2022-12-23T04:09:08.347Z,29.60
2022-12-23T04:12:10.811Z,29.30
2022-12-23T04:15:13.635Z,29.60
2022-12-23T04:18:16.422Z,29.50
2022-12-23T04:21:18.691Z,29.30
2022-12-23T04:24:20.624Z,29.40
2022-12-23T04:27:22.887Z,29.40
2022-12-23T04:30:29.736Z,29.50
2022-12-23T04:33:36.137Z,29.50
2022-12-23T04:36:38.132Z,29.50
2022-12-23T04:39:40.386Z,29.60
2022-12-23T04:42:43.217Z,29.60
2022-12-23T04:45:50.785Z,29.60
2022-12-23T04:48:52.783Z,29.60
2022-12-23T04:51:55.056Z,29.70
2022-12-23T04:54:57.057Z,29.80
2022-12-23T04:57:59.334Z,29.90
2022-12-23T05:01:05.452Z,29.90
2022-12-23T05:04:08.991Z,29.90
2022-12-23T05:07:12.103Z,29.90
2022-12-23T05:10:14.590Z,30.00
2022-12-23T05:13:16.653Z,29.90
2022-12-23T05:16:19.003Z,30.00
2022-12-23T05:19:21.080Z,29.90
2022-12-23T05:22:23.295Z,29.90
2022-12-23T05:25:25.258Z,29.90
2022-12-23T05:28:27.644Z,29.90
2022-12-23T05:31:29.706Z,29.80
2022-12-23T05:34:31.998Z,29.80
2022-12-23T05:37:33.998Z,29.70
2022-12-23T05:40:36.254Z,29.70
2022-12-23T05:43:40.182Z,29.50
2022-12-23T05:46:42.549Z,29.50
2022-12-23T05:49:44.574Z,29.40
2022-12-23T05:52:46.797Z,29.40
2022-12-23T05:55:48.859Z,29.40
2022-12-23T05:58:51.103Z,29.20
2022-12-23T06:01:54.471Z,29.30
2022-12-23T06:04:57.282Z,29.30
2022-12-23T06:07:59.283Z,29.50
2022-12-23T06:11:05.392Z,29.60
2022-12-23T06:14:07.548Z,29.60
2022-12-23T06:17:09.756Z,29.70
2022-12-23T06:20:19.652Z,29.80
2022-12-23T06:23:22.466Z,29.80
2022-12-23T06:26:24.447Z,29.80
2022-12-23T06:29:26.761Z,29.80
2022-12-23T06:32:31.607Z,29.90
2022-12-23T06:35:38.440Z,29.90
2022-12-23T06:38:40.392Z,29.90
2022-12-23T06:41:42.694Z,29.90
2022-12-23T06:44:44.701Z,29.90
2022-12-23T06:47:46.968Z,29.90
2022-12-23T06:50:48.934Z,29.90
2022-12-23T06:53:51.266Z,29.90
2022-12-23T06:56:53.284Z,29.90
2022-12-23T06:59:55.689Z,30.00
2022-12-23T07:02:57.809Z,30.00
2022-12-23T07:06:00.290Z,30.10
2022-12-23T07:09:02.428Z,30.00
2022-12-23T07:12:04.940Z,29.90
2022-12-23T07:15:07.968Z,29.80
2022-12-23T07:18:10.276Z,29.80
2022-12-23T07:21:19.998Z,29.60
2022-12-23T07:24:28.153Z,29.70
2022-12-23T07:27:30.145Z,29.70
2022-12-23T07:30:32.470Z,29.70
2022-12-23T07:33:34.601Z,29.70
2022-12-23T07:36:36.919Z,29.70
2022-12-23T07:39:38.916Z,29.80
2022-12-23T07:42:46.462Z,29.60
2022-12-23T07:45:53.937Z,29.60
2022-12-23T07:48:59.849Z,29.50
2022-12-23T07:52:01.848Z,29.60
2022-12-23T07:55:05.493Z,29.70
2022-12-23T07:58:07.509Z,29.60
2022-12-23T08:01:09.828Z,29.70
2022-12-23T08:04:11.939Z,29.80
2022-12-23T08:07:14.242Z,29.80
2022-12-23T08:10:16.367Z,29.90
2022-12-23T08:13:18.611Z,29.90
2022-12-23T08:16:20.657Z,30.00
2022-12-23T08:19:23.074Z,29.90
2022-12-23T08:22:25.132Z,29.70
2022-12-23T08:25:27.454Z,29.80
2022-12-23T08:28:30.097Z,29.70
2022-12-23T08:31:32.855Z,29.60
2022-12-23T08:34:35.139Z,29.80
2022-12-23T08:37:37.441Z,29.30
2022-12-23T08:40:42.698Z,29.50
2022-12-23T08:43:45.316Z,29.70
2022-12-23T08:46:47.613Z,29.70
2022-12-23T08:49:49.976Z,29.70
2022-12-23T08:52:52.024Z,29.60
2022-12-23T08:55:54.748Z,29.50
2022-12-23T08:58:57.223Z,29.60
2022-12-23T09:02:02.040Z,29.60
2022-12-23T09:05:04.416Z,29.40
2022-12-23T09:08:06.825Z,29.30
2022-12-23T09:11:13.630Z,29.20
2022-12-23T09:14:15.926Z,29.40
2022-12-23T09:17:17.933Z,29.50
2022-12-23T09:20:20.234Z,29.60
2022-12-23T09:23:22.411Z,29.80
2022-12-23T09:26:27.199Z,30.00
2022-12-23T09:29:29.196Z,30.10
2022-12-23T09:32:32.076Z,29.70
2022-12-23T09:35:34.375Z,29.40
2022-12-23T09:38:36.770Z,29.50
2022-12-23T09:41:44.676Z,29.50
2022-12-23T09:45:16.127Z,29.80
2022-12-23T09:48:22.764Z,29.70
2022-12-23T09:51:26.595Z,29.70
2022-12-23T09:54:34.964Z,29.70
2022-12-23T09:57:47.848Z,29.80
2022-12-23T10:01:06.546Z,29.90
2022-12-23T10:04:36.662Z,29.80
2022-12-23T10:07:44.919Z,29.60
2022-12-23T10:11:19.671Z,29.50
2022-12-23T10:14:31.709Z,29.10
2022-12-23T10:17:41.615Z,29.50
2022-12-23T10:20:51.335Z,29.70
2022-12-23T10:23:54.838Z,30.10
2022-12-23T10:27:04.191Z,30.20
2022-12-23T10:30:42.668Z,30.30
2022-12-23T10:34:12.160Z,30.50
2022-12-23T10:37:18.783Z,30.70
2022-12-23T10:40:39.907Z,30.90
2022-12-23T10:44:24.340Z,30.90
2022-12-23T10:47:59.169Z,30.90
2022-12-23T10:51:18.440Z,31.10
2022-12-23T10:54:35.740Z,31.30
2022-12-23T10:57:38.235Z,31.30
2022-12-23T11:00:43.594Z,31.20
2022-12-23T11:03:55.043Z,31.20
2022-12-23T11:07:26.174Z,31.30
2022-12-23T11:10:25.597Z,31.20
2022-12-23T11:13:45.609Z,31.30
2022-12-23T11:16:47.879Z,31.50
2022-12-23T11:20:10.377Z,31.50
2022-12-23T11:23:39.095Z,31.40
2022-12-23T11:26:41.958Z,31.50
2022-12-23T11:29:51.395Z,31.50
2022-12-23T11:32:54.500Z,31.60
2022-12-23T11:36:09.395Z,31.70
2022-12-23T11:39:22.104Z,31.40
2022-12-23T11:42:30.110Z,31.50
2022-12-23T11:45:37.609Z,31.40
2022-12-23T11:48:39.934Z,31.30
2022-12-23T11:51:47.865Z,31.20
2022-12-23T11:54:59.393Z,31.10
2022-12-23T11:58:03.168Z,30.90
2022-12-23T12:01:17.818Z,30.80
2022-12-23T12:04:23.931Z,30.80
2022-12-23T12:07:26.868Z,30.70
2022-12-23T12:10:32.246Z,30.70
2022-12-23T12:13:43.249Z,30.60
2022-12-23T12:17:00.476Z,30.60
2022-12-23T12:20:24.263Z,30.70
2022-12-23T12:23:40.334Z,30.50
2022-12-23T12:26:47.130Z,30.70
2022-12-23T12:29:57.216Z,30.50
2022-12-23T12:33:19.279Z,30.50
2022-12-23T12:36:44.026Z,30.20
2022-12-23T12:39:54.240Z,30.10
2022-12-23T12:43:20.997Z,30.30
2022-12-23T12:46:56.059Z,30.50
2022-12-23T12:50:02.965Z,30.60
2022-12-23T12:53:23.269Z,30.60
2022-12-23T12:56:48.543Z,30.60
2022-12-23T12:59:58.548Z,30.40
2022-12-23T13:03:34.313Z,30.50
2022-12-23T13:06:56.836Z,30.60
2022-12-23T13:10:26.653Z,30.70
2022-12-23T13:14:26.018Z,30.60
2022-12-23T13:17:48.299Z,30.70
2022-12-23T13:21:22.998Z,30.70
2022-12-23T13:24:28.646Z,30.80
2022-12-23T13:27:45.667Z,30.80
2022-12-23T13:30:59.406Z,30.90
2022-12-23T13:34:09.537Z,30.80
2022-12-23T13:37:28.912Z,30.40
2022-12-23T13:41:08.092Z,30.10
2022-12-23T13:44:11.303Z,29.90
2022-12-23T13:47:24.629Z,29.60
2022-12-23T13:50:46.903Z,29.50
2022-12-23T13:53:49.154Z,29.90
2022-12-23T13:57:22.885Z,30.10
2022-12-23T14:00:33.991Z,30.20
2022-12-23T14:03:38.395Z,30.30
2022-12-23T14:06:40.643Z,30.30
2022-12-23T14:09:42.728Z,30.30
2022-12-23T14:12:45.595Z,30.40
2022-12-23T14:16:03.610Z,30.50
2022-12-23T14:19:31.044Z,30.50
2022-12-23T14:22:58.628Z,30.60
2022-12-23T14:26:21.785Z,30.70
2022-12-23T14:29:45.235Z,30.90
2022-12-23T14:32:57.293Z,30.80
2022-12-23T14:36:21.297Z,30.70
2022-12-23T14:39:33.944Z,30.60
2022-12-23T14:42:41.573Z,30.60
2022-12-23T14:45:44.318Z,30.50
2022-12-23T14:48:47.037Z,30.60
2022-12-23T14:51:52.863Z,30.60
2022-12-23T14:55:28.632Z,30.60
2022-12-23T14:58:29.502Z,30.60
2022-12-23T15:01:50.046Z,30.60
2022-12-23T15:04:58.298Z,30.60
2022-12-23T15:08:00.273Z,30.60
2022-12-23T15:11:03.104Z,30.70
2022-12-23T15:14:10.395Z,30.70
2022-12-23T15:17:26.816Z,30.70
2022-12-23T15:20:29.064Z,30.60
2022-12-23T15:23:33.287Z,30.60
2022-12-23T15:26:35.832Z,30.60
2022-12-23T15:29:43.622Z,30.70
2022-12-23T15:32:49.308Z,30.30
2022-12-23T15:35:53.309Z,30.40
2022-12-23T15:38:56.458Z,30.30
2022-12-23T15:42:01.444Z,29.80
2022-12-23T15:45:35.609Z,29.80
2022-12-23T15:48:38.430Z,29.90
2022-12-23T15:52:07.045Z,29.80
2022-12-23T15:55:25.449Z,29.40
2022-12-23T15:58:29.013Z,29.50
2022-12-23T16:01:44.802Z,30.00
2022-12-23T16:05:08.933Z,30.00
2022-12-23T16:08:28.191Z,30.00
2022-12-23T16:12:00.848Z,30.10
2022-12-23T16:15:04.628Z,30.20
2022-12-23T16:18:25.584Z,30.30
2022-12-23T16:21:34.261Z,30.40
2022-12-23T16:24:36.536Z,30.40
2022-12-23T16:27:46.180Z,30.40
2022-12-23T16:30:49.961Z,30.60
2022-12-23T16:33:58.089Z,30.50
2022-12-23T16:37:00.178Z,30.40
2022-12-23T16:40:09.819Z,30.50
2022-12-23T16:43:11.898Z,30.40
2022-12-23T16:46:20.347Z,30.40
2022-12-23T16:49:31.259Z,30.30
2022-12-23T16:52:35.379Z,30.20
2022-12-23T16:55:37.410Z,30.20
2022-12-23T16:58:39.771Z,30.30
2022-12-23T17:01:47.287Z,30.40
2022-12-23T17:04:50.204Z,30.50
2022-12-23T17:07:52.247Z,30.60
2022-12-23T17:10:56.516Z,30.60
2022-12-23T17:14:04.669Z,30.60
2022-12-23T17:17:15.972Z,30.70
2022-12-23T17:20:19.271Z,30.60
2022-12-23T17:23:25.773Z,30.60
2022-12-23T17:26:27.784Z,30.60
2022-12-23T17:29:30.179Z,30.40
2022-12-23T17:32:32.293Z,30.30
2022-12-23T17:35:34.580Z,30.40
2022-12-23T17:38:36.680Z,30.40
2022-12-23T17:41:40.849Z,30.30
2022-12-23T17:44:43.473Z,30.30
2022-12-23T17:47:45.698Z,30.40
2022-12-23T17:50:48.770Z,30.40
2022-12-23T17:53:58.321Z,30.40
2022-12-23T17:57:00.468Z,30.30
2022-12-23T18:00:05.404Z,30.30
2022-12-23T18:03:17.047Z,30.30
2022-12-23T18:06:20.918Z,30.10
2022-12-23T18:09:23.278Z,30.10
2022-12-23T18:12:36.250Z,30.10
2022-12-23T18:15:43.175Z,30.20
2022-12-23T18:18:46.850Z,30.20
2022-12-23T18:21:50.009Z,30.20
2022-12-23T18:24:58.961Z,30.40
2022-12-23T18:28:01.455Z,30.40
2022-12-23T18:31:04.092Z,30.50
2022-12-23T18:34:06.168Z,30.50
2022-12-23T18:37:09.253Z,30.50
2022-12-23T18:40:11.657Z,30.50
2022-12-23T18:43:24.885Z,30.50
2022-12-23T18:46:26.910Z,30.40
2022-12-23T18:49:29.252Z,30.40
2022-12-23T18:52:31.225Z,30.40
2022-12-23T18:55:33.772Z,30.40
2022-12-23T18:58:35.729Z,30.30
2022-12-23T19:01:38.024Z,30.30
2022-12-23T19:04:40.168Z,30.30
2022-12-23T19:07:42.523Z,30.30
2022-12-23T19:10:47.145Z,30.40
2022-12-23T19:13:49.452Z,30.40
2022-12-23T19:16:52.606Z,30.40
2022-12-23T19:19:55.239Z,30.30
2022-12-23T19:22:57.246Z,30.30
2022-12-23T19:25:59.513Z,30.30
2022-12-23T19:29:01.511Z,30.30
2022-12-23T19:32:04.034Z,30.30
2022-12-23T19:35:06.679Z,30.40
2022-12-23T19:38:09.128Z,30.40
2022-12-23T19:41:16.859Z,30.40
2022-12-23T19:44:19.337Z,30.40
2022-12-23T19:47:21.549Z,30.40
2022-12-23T19:50:23.862Z,30.40
2022-12-23T19:53:27.035Z,30.40
2022-12-23T19:56:30.453Z,30.30
2022-12-23T19:59:32.498Z,30.20
2022-12-23T20:02:34.784Z,30.20
2022-12-23T20:05:36.877Z,30.20
2022-12-23T20:08:42.325Z,30.30
2022-12-23T20:11:46.719Z,30.10
2022-12-23T20:14:49.088Z,30.20
2022-12-23T20:17:51.081Z,30.20
2022-12-23T20:20:53.349Z,30.20
2022-12-23T20:23:55.354Z,30.20
2022-12-23T20:26:58.203Z,30.30
2022-12-23T20:30:00.194Z,30.30
2022-12-23T20:33:02.446Z,30.40
2022-12-23T20:36:06.806Z,30.30
2022-12-23T20:39:09.232Z,30.30
2022-12-23T20:42:11.452Z,30.40
2022-12-23T20:45:13.840Z,30.40
2022-12-23T20:48:15.894Z,30.40
2022-12-23T20:51:24.056Z,30.40
2022-12-23T20:54:32.190Z,30.30
2022-12-23T20:57:35.885Z,30.30
2022-12-23T21:00:37.898Z,30.30
2022-12-23T21:03:40.729Z,30.30
2022-12-23T21:06:43.692Z,30.20
2022-12-23T21:09:45.927Z,30.10
2022-12-23T21:12:47.932Z,30.00
2022-12-23T21:15:50.356Z,30.00
2022-12-23T21:18:53.325Z,30.00
2022-12-23T21:21:56.826Z,29.90
2022-12-23T21:24:59.066Z,29.90
2022-12-23T21:28:01.368Z,29.90
2022-12-23T21:31:03.860Z,29.80
2022-12-23T21:34:06.798Z,29.70
2022-12-23T21:37:08.853Z,29.80
2022-12-23T21:40:12.246Z,29.80
2022-12-23T21:43:14.267Z,29.80
2022-12-23T21:46:22.535Z,29.90
2022-12-23T21:49:26.836Z,30.00
2022-12-23T21:52:29.118Z,29.90
2022-12-23T21:55:31.091Z,29.40
2022-12-23T21:58:33.969Z,29.40
2022-12-23T22:01:36.605Z,29.40
2022-12-23T22:04:38.981Z,29.30
2022-12-23T22:07:41.015Z,29.30
2022-12-23T22:10:43.714Z,29.00
2022-12-23T22:13:46.547Z,29.20
2022-12-23T22:16:48.988Z,29.20
2022-12-23T22:19:51.138Z,29.20
2022-12-23T22:22:54.398Z,29.30
2022-12-23T22:25:57.439Z,29.40
2022-12-23T22:29:02.986Z,29.50
2022-12-23T22:32:05.153Z,29.60
2022-12-23T22:35:07.747Z,29.60
2022-12-23T22:38:09.813Z,29.70
2022-12-23T22:41:13.254Z,29.40
2022-12-23T22:44:16.292Z,29.40
2022-12-23T22:47:18.791Z,29.40
2022-12-23T22:50:20.905Z,29.40
2022-12-23T22:53:29.345Z,29.50
2022-12-23T22:56:31.836Z,29.60
2022-12-23T22:59:34.196Z,29.50
2022-12-23T23:02:36.185Z,29.30
2022-12-23T23:05:38.636Z,29.10
2022-12-23T23:08:42.392Z,29.20
2022-12-23T23:11:44.787Z,28.90
2022-12-23T23:14:52.856Z,29.00
2022-12-23T23:17:56.229Z,28.90
2022-12-23T23:20:58.868Z,28.50
2022-12-23T23:24:01.442Z,28.40
2022-12-23T23:27:03.554Z,28.40
2022-12-23T23:30:06.459Z,28.40
2022-12-23T23:33:09.535Z,28.30
2022-12-23T23:36:11.907Z,28.50
2022-12-23T23:39:14.205Z,28.40
2022-12-23T23:42:17.839Z,28.30
2022-12-23T23:45:20.136Z,28.40
2022-12-23T23:48:22.636Z,28.70
2022-12-23T23:51:24.765Z,28.80
2022-12-23T23:54:27.144Z,28.90
2022-12-23T23:57:29.541Z,29.10
